sensor_id;sensor_type;location;lat;lon;timestamp;temperature;humidity
61201;DHT22;47065;52.898;6.992;2023-06-14T00:01:54;16.00;67.10
61201;DHT22;47065;52.898;6.992;2023-06-14T00:04:20;16.00;67.20
61201;DHT22;47065;52.898;6.992;2023-06-14T00:06:47;15.90;67.40
61201;DHT22;47065;52.898;6.992;2023-06-14T00:09:14;15.90;67.70
61201;DHT22;47065;52.898;6.992;2023-06-14T00:11:42;15.80;67.80
61201;DHT22;47065;52.898;6.992;2023-06-14T00:14:08;15.80;68.10
61201;DHT22;47065;52.898;6.992;2023-06-14T00:16:34;15.80;68.40
61201;DHT22;47065;52.898;6.992;2023-06-14T00:19:01;15.80;68.80
61201;DHT22;47065;52.898;6.992;2023-06-14T00:21:29;15.70;68.80
61201;DHT22;47065;52.898;6.992;2023-06-14T00:23:55;15.70;68.90
61201;DHT22;47065;52.898;6.992;2023-06-14T00:26:21;15.70;69.40
61201;DHT22;47065;52.898;6.992;2023-06-14T00:28:46;15.70;69.60
61201;DHT22;47065;52.898;6.992;2023-06-14T00:31:12;15.60;69.80
61201;DHT22;47065;52.898;6.992;2023-06-14T00:33:37;15.60;69.80
61201;DHT22;47065;52.898;6.992;2023-06-14T00:36:03;15.60;70.10
61201;DHT22;47065;52.898;6.992;2023-06-14T00:38:29;15.60;70.50
61201;DHT22;47065;52.898;6.992;2023-06-14T00:40:54;15.60;70.50
61201;DHT22;47065;52.898;6.992;2023-06-14T00:43:20;15.60;70.70
61201;DHT22;47065;52.898;6.992;2023-06-14T00:45:46;15.60;70.80
61201;DHT22;47065;52.898;6.992;2023-06-14T00:48:13;15.60;71.00
61201;DHT22;47065;52.898;6.992;2023-06-14T00:50:39;15.50;71.30
61201;DHT22;47065;52.898;6.992;2023-06-14T00:53:07;15.50;71.40
61201;DHT22;47065;52.898;6.992;2023-06-14T00:55:32;15.50;71.70
61201;DHT22;47065;52.898;6.992;2023-06-14T00:57:58;15.50;72.10
61201;DHT22;47065;52.898;6.992;2023-06-14T01:00:24;15.50;72.10
61201;DHT22;47065;52.898;6.992;2023-06-14T01:02:50;15.40;72.30
61201;DHT22;47065;52.898;6.992;2023-06-14T01:05:16;15.40;72.70
61201;DHT22;47065;52.898;6.992;2023-06-14T01:15:45;15.30;73.90
61201;DHT22;47065;52.898;6.992;2023-06-14T01:18:12;15.30;74.00
61201;DHT22;47065;52.898;6.992;2023-06-14T01:20:43;15.30;74.10
61201;DHT22;47065;52.898;6.992;2023-06-14T01:23:11;15.30;74.60
61201;DHT22;47065;52.898;6.992;2023-06-14T01:25:39;15.30;75.60
61201;DHT22;47065;52.898;6.992;2023-06-14T01:28:06;15.30;75.40
61201;DHT22;47065;52.898;6.992;2023-06-14T01:30:40;15.30;76.00
61201;DHT22;47065;52.898;6.992;2023-06-14T01:33:14;15.30;76.00
61201;DHT22;47065;52.898;6.992;2023-06-14T01:35:43;15.20;76.70
61201;DHT22;47065;52.898;6.992;2023-06-14T01:38:09;15.30;76.60
61201;DHT22;47065;52.898;6.992;2023-06-14T01:40:35;15.20;77.00
61201;DHT22;47065;52.898;6.992;2023-06-14T01:43:02;15.20;76.90
61201;DHT22;47065;52.898;6.992;2023-06-14T01:45:29;15.20;77.40
61201;DHT22;47065;52.898;6.992;2023-06-14T01:47:55;15.20;78.20
61201;DHT22;47065;52.898;6.992;2023-06-14T01:50:21;15.20;78.90
61201;DHT22;47065;52.898;6.992;2023-06-14T01:52:47;15.20;79.10
61201;DHT22;47065;52.898;6.992;2023-06-14T01:55:12;15.10;79.40
61201;DHT22;47065;52.898;6.992;2023-06-14T01:57:38;15.10;79.20
61201;DHT22;47065;52.898;6.992;2023-06-14T02:00:04;15.00;79.40
61201;DHT22;47065;52.898;6.992;2023-06-14T02:02:33;15.00;79.90
61201;DHT22;47065;52.898;6.992;2023-06-14T02:04:59;15.00;80.30
61201;DHT22;47065;52.898;6.992;2023-06-14T02:07:24;15.00;80.50
61201;DHT22;47065;52.898;6.992;2023-06-14T02:09:50;14.90;80.80
61201;DHT22;47065;52.898;6.992;2023-06-14T02:12:16;14.90;82.10
61201;DHT22;47065;52.898;6.992;2023-06-14T02:14:42;14.90;82.50
61201;DHT22;47065;52.898;6.992;2023-06-14T02:17:07;14.80;82.70
61201;DHT22;47065;52.898;6.992;2023-06-14T02:19:33;14.80;82.60
61201;DHT22;47065;52.898;6.992;2023-06-14T02:21:59;14.80;83.20
61201;DHT22;47065;52.898;6.992;2023-06-14T02:24:24;14.80;83.50
61201;DHT22;47065;52.898;6.992;2023-06-14T02:26:50;14.70;84.50
61201;DHT22;47065;52.898;6.992;2023-06-14T02:29:16;14.70;85.10
61201;DHT22;47065;52.898;6.992;2023-06-14T02:31:41;14.70;85.60
61201;DHT22;47065;52.898;6.992;2023-06-14T02:34:07;14.60;85.70
61201;DHT22;47065;52.898;6.992;2023-06-14T02:36:36;14.60;86.10
61201;DHT22;47065;52.898;6.992;2023-06-14T02:39:08;14.60;86.70
61201;DHT22;47065;52.898;6.992;2023-06-14T02:41:34;14.50;87.40
61201;DHT22;47065;52.898;6.992;2023-06-14T02:44:00;14.50;88.30
61201;DHT22;47065;52.898;6.992;2023-06-14T02:46:26;14.50;88.70
61201;DHT22;47065;52.898;6.992;2023-06-14T02:48:51;14.50;89.60
61201;DHT22;47065;52.898;6.992;2023-06-14T02:51:17;14.50;89.90
61201;DHT22;47065;52.898;6.992;2023-06-14T02:53:42;14.40;90.10
61201;DHT22;47065;52.898;6.992;2023-06-14T02:56:09;14.40;90.70
61201;DHT22;47065;52.898;6.992;2023-06-14T02:58:36;14.40;91.00
61201;DHT22;47065;52.898;6.992;2023-06-14T03:01:02;14.40;91.20
61201;DHT22;47065;52.898;6.992;2023-06-14T03:03:29;14.40;91.70
61201;DHT22;47065;52.898;6.992;2023-06-14T03:05:55;14.40;91.70
61201;DHT22;47065;52.898;6.992;2023-06-14T03:08:21;14.30;92.30
61201;DHT22;47065;52.898;6.992;2023-06-14T03:10:52;14.30;92.40
61201;DHT22;47065;52.898;6.992;2023-06-14T03:13:18;14.30;93.00
61201;DHT22;47065;52.898;6.992;2023-06-14T03:15:47;14.30;92.70
61201;DHT22;47065;52.898;6.992;2023-06-14T03:18:16;14.20;93.70
61201;DHT22;47065;52.898;6.992;2023-06-14T03:20:42;14.20;94.00
61201;DHT22;47065;52.898;6.992;2023-06-14T03:23:08;14.20;94.70
61201;DHT22;47065;52.898;6.992;2023-06-14T03:25:34;14.10;94.70
61201;DHT22;47065;52.898;6.992;2023-06-14T03:28:01;14.10;94.80
61201;DHT22;47065;52.898;6.992;2023-06-14T03:30:27;14.10;95.30
61201;DHT22;47065;52.898;6.992;2023-06-14T03:32:53;14.10;95.50
61201;DHT22;47065;52.898;6.992;2023-06-14T03:35:21;14.10;95.70
61201;DHT22;47065;52.898;6.992;2023-06-14T03:37:47;14.10;96.10
61201;DHT22;47065;52.898;6.992;2023-06-14T03:40:14;14.10;96.20
61201;DHT22;47065;52.898;6.992;2023-06-14T03:42:40;14.10;96.70
61201;DHT22;47065;52.898;6.992;2023-06-14T03:45:06;14.10;96.70
61201;DHT22;47065;52.898;6.992;2023-06-14T03:47:34;14.00;96.80
61201;DHT22;47065;52.898;6.992;2023-06-14T03:50:00;14.00;96.80
61201;DHT22;47065;52.898;6.992;2023-06-14T03:52:27;14.00;97.30
61201;DHT22;47065;52.898;6.992;2023-06-14T03:54:52;14.00;97.50
61201;DHT22;47065;52.898;6.992;2023-06-14T03:57:19;14.00;97.80
61201;DHT22;47065;52.898;6.992;2023-06-14T03:59:45;14.00;98.00
61201;DHT22;47065;52.898;6.992;2023-06-14T04:02:12;14.00;98.70
61201;DHT22;47065;52.898;6.992;2023-06-14T04:04:41;13.90;98.90
61201;DHT22;47065;52.898;6.992;2023-06-14T04:07:10;14.00;98.80
61201;DHT22;47065;52.898;6.992;2023-06-14T04:09:40;14.00;99.30
61201;DHT22;47065;52.898;6.992;2023-06-14T04:12:06;14.00;99.10
61201;DHT22;47065;52.898;6.992;2023-06-14T04:14:34;14.00;99.30
61201;DHT22;47065;52.898;6.992;2023-06-14T04:17:00;14.00;99.90
61201;DHT22;47065;52.898;6.992;2023-06-14T04:19:26;14.00;99.50
61201;DHT22;47065;52.898;6.992;2023-06-14T04:21:52;14.00;99.90
61201;DHT22;47065;52.898;6.992;2023-06-14T04:24:17;14.00;99.90
61201;DHT22;47065;52.898;6.992;2023-06-14T04:26:44;14.00;99.90
61201;DHT22;47065;52.898;6.992;2023-06-14T04:29:15;14.10;99.90
61201;DHT22;47065;52.898;6.992;2023-06-14T04:31:42;14.10;99.90
61201;DHT22;47065;52.898;6.992;2023-06-14T04:34:08;14.10;99.90
61201;DHT22;47065;52.898;6.992;2023-06-14T04:36:34;14.10;99.90
61201;DHT22;47065;52.898;6.992;2023-06-14T04:39:02;14.20;99.90
61201;DHT22;47065;52.898;6.992;2023-06-14T04:41:32;14.10;99.90
61201;DHT22;47065;52.898;6.992;2023-06-14T04:43:59;14.20;99.90
61201;DHT22;47065;52.898;6.992;2023-06-14T04:46:30;14.30;99.90
61201;DHT22;47065;52.898;6.992;2023-06-14T04:48:57;14.30;99.90
61201;DHT22;47065;52.898;6.992;2023-06-14T04:51:28;14.30;99.90
61201;DHT22;47065;52.898;6.992;2023-06-14T04:53:58;14.40;99.90
61201;DHT22;47065;52.898;6.992;2023-06-14T04:56:26;14.40;99.90
61201;DHT22;47065;52.898;6.992;2023-06-14T04:58:52;14.40;99.90
61201;DHT22;47065;52.898;6.992;2023-06-14T05:01:20;14.50;99.90
61201;DHT22;47065;52.898;6.992;2023-06-14T05:03:47;14.50;99.90
61201;DHT22;47065;52.898;6.992;2023-06-14T05:06:15;14.50;99.90
61201;DHT22;47065;52.898;6.992;2023-06-14T05:08:41;14.70;99.90
61201;DHT22;47065;52.898;6.992;2023-06-14T05:11:07;14.70;99.90
61201;DHT22;47065;52.898;6.992;2023-06-14T05:13:32;14.70;99.90
61201;DHT22;47065;52.898;6.992;2023-06-14T05:16:00;14.80;99.90
61201;DHT22;47065;52.898;6.992;2023-06-14T05:18:26;14.90;99.90
61201;DHT22;47065;52.898;6.992;2023-06-14T05:20:51;15.00;99.90
61201;DHT22;47065;52.898;6.992;2023-06-14T05:23:17;15.00;99.90
61201;DHT22;47065;52.898;6.992;2023-06-14T05:25:44;15.10;99.90
61201;DHT22;47065;52.898;6.992;2023-06-14T05:28:09;15.10;99.90
61201;DHT22;47065;52.898;6.992;2023-06-14T05:30:38;15.20;99.90
61201;DHT22;47065;52.898;6.992;2023-06-14T05:33:03;15.20;99.90
61201;DHT22;47065;52.898;6.992;2023-06-14T05:35:29;15.30;99.90
61201;DHT22;47065;52.898;6.992;2023-06-14T05:37:55;15.40;99.90
61201;DHT22;47065;52.898;6.992;2023-06-14T05:40:20;15.40;99.90
61201;DHT22;47065;52.898;6.992;2023-06-14T05:42:46;15.50;99.90
61201;DHT22;47065;52.898;6.992;2023-06-14T05:45:12;15.50;99.90
61201;DHT22;47065;52.898;6.992;2023-06-14T05:47:37;15.60;99.90
61201;DHT22;47065;52.898;6.992;2023-06-14T05:50:03;15.70;99.90
61201;DHT22;47065;52.898;6.992;2023-06-14T05:52:29;15.70;99.90
61201;DHT22;47065;52.898;6.992;2023-06-14T05:54:55;15.70;99.90
61201;DHT22;47065;52.898;6.992;2023-06-14T05:57:20;15.80;99.90
61201;DHT22;47065;52.898;6.992;2023-06-14T05:59:46;15.80;99.90
61201;DHT22;47065;52.898;6.992;2023-06-14T06:02:12;15.90;99.90
61201;DHT22;47065;52.898;6.992;2023-06-14T06:04:37;15.90;99.90
61201;DHT22;47065;52.898;6.992;2023-06-14T06:07:03;16.00;99.90
61201;DHT22;47065;52.898;6.992;2023-06-14T06:09:29;16.00;99.90
61201;DHT22;47065;52.898;6.992;2023-06-14T06:11:55;16.10;99.90
61201;DHT22;47065;52.898;6.992;2023-06-14T06:14:21;16.20;99.90
61201;DHT22;47065;52.898;6.992;2023-06-14T06:16:46;16.30;99.90
61201;DHT22;47065;52.898;6.992;2023-06-14T06:19:12;16.40;99.90
61201;DHT22;47065;52.898;6.992;2023-06-14T06:21:38;16.50;99.90
61201;DHT22;47065;52.898;6.992;2023-06-14T06:24:05;16.60;99.90
61201;DHT22;47065;52.898;6.992;2023-06-14T06:26:31;16.60;99.90
61201;DHT22;47065;52.898;6.992;2023-06-14T06:28:58;16.80;99.80
61201;DHT22;47065;52.898;6.992;2023-06-14T06:31:23;16.90;99.70
61201;DHT22;47065;52.898;6.992;2023-06-14T06:33:50;17.00;99.40
61201;DHT22;47065;52.898;6.992;2023-06-14T06:36:15;17.10;99.30
61201;DHT22;47065;52.898;6.992;2023-06-14T06:38:41;17.10;99.20
61201;DHT22;47065;52.898;6.992;2023-06-14T06:41:07;17.20;99.00
61201;DHT22;47065;52.898;6.992;2023-06-14T06:43:33;17.30;98.50
61201;DHT22;47065;52.898;6.992;2023-06-14T06:45:58;17.40;98.50
61201;DHT22;47065;52.898;6.992;2023-06-14T06:48:24;17.50;98.30
61201;DHT22;47065;52.898;6.992;2023-06-14T06:50:50;17.60;97.90
61201;DHT22;47065;52.898;6.992;2023-06-14T06:53:16;17.70;97.80
61201;DHT22;47065;52.898;6.992;2023-06-14T06:55:44;17.80;97.50
61201;DHT22;47065;52.898;6.992;2023-06-14T06:58:09;17.90;97.00
61201;DHT22;47065;52.898;6.992;2023-06-14T07:00:35;18.20;96.90
61201;DHT22;47065;52.898;6.992;2023-06-14T07:03:01;18.50;96.50
61201;DHT22;47065;52.898;6.992;2023-06-14T07:05:26;18.90;95.50
61201;DHT22;47065;52.898;6.992;2023-06-14T07:07:52;19.20;95.00
61201;DHT22;47065;52.898;6.992;2023-06-14T07:10:18;19.50;94.30
61201;DHT22;47065;52.898;6.992;2023-06-14T07:12:44;19.70;93.50
61201;DHT22;47065;52.898;6.992;2023-06-14T07:15:10;19.60;92.70
61201;DHT22;47065;52.898;6.992;2023-06-14T07:17:36;19.60;92.60
61201;DHT22;47065;52.898;6.992;2023-06-14T07:20:03;19.70;92.60
61201;DHT22;47065;52.898;6.992;2023-06-14T07:22:33;19.70;92.50
61201;DHT22;47065;52.898;6.992;2023-06-14T07:24:59;19.80;91.90
61201;DHT22;47065;52.898;6.992;2023-06-14T07:27:24;19.80;91.70
61201;DHT22;47065;52.898;6.992;2023-06-14T07:29:50;19.80;91.50
61201;DHT22;47065;52.898;6.992;2023-06-14T07:32:15;19.80;91.30
61201;DHT22;47065;52.898;6.992;2023-06-14T07:34:41;19.90;90.90
61201;DHT22;47065;52.898;6.992;2023-06-14T07:37:06;19.90;90.70
61201;DHT22;47065;52.898;6.992;2023-06-14T07:39:32;20.00;90.60
61201;DHT22;47065;52.898;6.992;2023-06-14T07:41:58;20.30;89.60
61201;DHT22;47065;52.898;6.992;2023-06-14T07:44:23;20.50;89.60
61201;DHT22;47065;52.898;6.992;2023-06-14T07:46:49;20.70;89.10
61201;DHT22;47065;52.898;6.992;2023-06-14T07:49:15;20.80;89.20
61201;DHT22;47065;52.898;6.992;2023-06-14T07:51:40;20.90;87.90
61201;DHT22;47065;52.898;6.992;2023-06-14T07:54:06;20.90;86.90
61201;DHT22;47065;52.898;6.992;2023-06-14T07:56:34;20.90;86.70
61201;DHT22;47065;52.898;6.992;2023-06-14T07:58:59;21.00;85.80
61201;DHT22;47065;52.898;6.992;2023-06-14T08:01:25;21.20;84.10
61201;DHT22;47065;52.898;6.992;2023-06-14T08:03:51;21.30;84.00
61201;DHT22;47065;52.898;6.992;2023-06-14T08:06:16;21.40;83.50
61201;DHT22;47065;52.898;6.992;2023-06-14T08:08:42;21.50;83.40
61201;DHT22;47065;52.898;6.992;2023-06-14T08:11:07;21.50;80.10
61201;DHT22;47065;52.898;6.992;2023-06-14T08:13:33;21.70;80.40
61201;DHT22;47065;52.898;6.992;2023-06-14T08:15:59;21.90;80.20
61201;DHT22;47065;52.898;6.992;2023-06-14T08:18:26;22.00;79.60
61201;DHT22;47065;52.898;6.992;2023-06-14T08:20:52;22.00;78.10
61201;DHT22;47065;52.898;6.992;2023-06-14T08:23:19;22.10;78.10
61201;DHT22;47065;52.898;6.992;2023-06-14T08:25:46;22.10;77.20
61201;DHT22;47065;52.898;6.992;2023-06-14T08:28:12;22.40;77.60
61201;DHT22;47065;52.898;6.992;2023-06-14T08:30:38;22.80;77.30
61201;DHT22;47065;52.898;6.992;2023-06-14T08:33:03;23.10;76.90
61201;DHT22;47065;52.898;6.992;2023-06-14T08:35:29;23.30;76.40
61201;DHT22;47065;52.898;6.992;2023-06-14T08:37:54;23.50;75.70
61201;DHT22;47065;52.898;6.992;2023-06-14T08:40:22;23.70;75.60
61201;DHT22;47065;52.898;6.992;2023-06-14T08:42:53;24.20;73.50
61201;DHT22;47065;52.898;6.992;2023-06-14T08:45:20;24.90;71.70
61201;DHT22;47065;52.898;6.992;2023-06-14T08:47:47;25.90;70.10
61201;DHT22;47065;52.898;6.992;2023-06-14T08:50:26;26.80;67.00
61201;DHT22;47065;52.898;6.992;2023-06-14T08:52:57;27.70;64.70
61201;DHT22;47065;52.898;6.992;2023-06-14T08:55:27;28.20;64.90
61201;DHT22;47065;52.898;6.992;2023-06-14T08:57:57;28.60;62.00
61201;DHT22;47065;52.898;6.992;2023-06-14T09:00:27;28.80;59.70
61201;DHT22;47065;52.898;6.992;2023-06-14T09:02:53;29.00;58.40
61201;DHT22;47065;52.898;6.992;2023-06-14T09:05:28;29.20;57.40
61201;DHT22;47065;52.898;6.992;2023-06-14T09:07:54;29.90;56.50
61201;DHT22;47065;52.898;6.992;2023-06-14T09:10:22;30.40;55.40
61201;DHT22;47065;52.898;6.992;2023-06-14T09:12:48;30.80;54.70
61201;DHT22;47065;52.898;6.992;2023-06-14T09:15:14;31.20;53.40
61201;DHT22;47065;52.898;6.992;2023-06-14T09:17:40;31.40;52.60
61201;DHT22;47065;52.898;6.992;2023-06-14T09:20:07;31.70;52.30
61201;DHT22;47065;52.898;6.992;2023-06-14T09:22:39;31.90;50.80
61201;DHT22;47065;52.898;6.992;2023-06-14T09:25:05;32.30;49.50
61201;DHT22;47065;52.898;6.992;2023-06-14T09:27:32;32.40;48.90
61201;DHT22;47065;52.898;6.992;2023-06-14T09:29:58;32.50;48.60
61201;DHT22;47065;52.898;6.992;2023-06-14T09:32:24;32.60;48.00
61201;DHT22;47065;52.898;6.992;2023-06-14T09:34:50;32.70;47.70
61201;DHT22;47065;52.898;6.992;2023-06-14T09:37:29;32.90;48.00
61201;DHT22;47065;52.898;6.992;2023-06-14T09:39:55;32.90;45.50
61201;DHT22;47065;52.898;6.992;2023-06-14T09:42:21;33.30;46.70
61201;DHT22;47065;52.898;6.992;2023-06-14T09:44:49;33.40;45.50
61201;DHT22;47065;52.898;6.992;2023-06-14T09:47:16;33.20;44.40
61201;DHT22;47065;52.898;6.992;2023-06-14T09:49:42;32.90;44.30
61201;DHT22;47065;52.898;6.992;2023-06-14T09:52:19;32.70;44.50
61201;DHT22;47065;52.898;6.992;2023-06-14T09:54:47;32.50;44.40
61201;DHT22;47065;52.898;6.992;2023-06-14T09:57:19;32.40;45.00
61201;DHT22;47065;52.898;6.992;2023-06-14T09:59:46;32.40;45.00
61201;DHT22;47065;52.898;6.992;2023-06-14T10:02:26;32.70;43.20
61201;DHT22;47065;52.898;6.992;2023-06-14T10:04:57;32.90;44.30
61201;DHT22;47065;52.898;6.992;2023-06-14T10:07:26;32.90;45.20
61201;DHT22;47065;52.898;6.992;2023-06-14T10:09:55;32.90;44.60
61201;DHT22;47065;52.898;6.992;2023-06-14T10:12:21;32.70;44.00
61201;DHT22;47065;52.898;6.992;2023-06-14T10:14:51;32.40;44.30
61201;DHT22;47065;52.898;6.992;2023-06-14T10:17:44;32.40;43.40
61201;DHT22;47065;52.898;6.992;2023-06-14T10:20:35;32.40;43.90
61201;DHT22;47065;52.898;6.992;2023-06-14T10:23:21;32.40;43.40
61201;DHT22;47065;52.898;6.992;2023-06-14T10:25:54;32.10;42.20
61201;DHT22;47065;52.898;6.992;2023-06-14T10:28:22;31.80;44.30
61201;DHT22;47065;52.898;6.992;2023-06-14T10:31:09;31.60;44.60
61201;DHT22;47065;52.898;6.992;2023-06-14T10:33:56;31.30;44.10
61201;DHT22;47065;52.898;6.992;2023-06-14T10:38:58;31.00;44.40
61201;DHT22;47065;52.898;6.992;2023-06-14T10:41:26;30.90;44.50
61201;DHT22;47065;52.898;6.992;2023-06-14T10:46:40;30.50;44.90
61201;DHT22;47065;52.898;6.992;2023-06-14T10:49:06;30.10;45.10
61201;DHT22;47065;52.898;6.992;2023-06-14T10:51:40;29.70;45.70
61201;DHT22;47065;52.898;6.992;2023-06-14T10:54:16;29.40;46.20
61201;DHT22;47065;52.898;6.992;2023-06-14T10:56:52;29.10;46.10
61201;DHT22;47065;52.898;6.992;2023-06-14T10:59:19;29.00;47.00
61201;DHT22;47065;52.898;6.992;2023-06-14T11:04:49;29.00;47.60
61201;DHT22;47065;52.898;6.992;2023-06-14T11:10:37;28.80;46.60
61201;DHT22;47065;52.898;6.992;2023-06-14T11:13:03;28.60;47.40
61201;DHT22;47065;52.898;6.992;2023-06-14T11:15:33;28.40;48.20
61201;DHT22;47065;52.898;6.992;2023-06-14T11:18:04;28.40;47.90
61201;DHT22;47065;52.898;6.992;2023-06-14T11:20:31;28.40;48.70
61201;DHT22;47065;52.898;6.992;2023-06-14T11:22:57;28.40;48.00
61201;DHT22;47065;52.898;6.992;2023-06-14T11:25:23;28.20;47.50
61201;DHT22;47065;52.898;6.992;2023-06-14T11:27:50;27.90;47.40
61201;DHT22;47065;52.898;6.992;2023-06-14T11:30:16;27.60;48.30
61201;DHT22;47065;52.898;6.992;2023-06-14T11:32:45;27.50;49.10
61201;DHT22;47065;52.898;6.992;2023-06-14T11:35:11;27.40;49.60
61201;DHT22;47065;52.898;6.992;2023-06-14T11:37:37;27.30;49.10
61201;DHT22;47065;52.898;6.992;2023-06-14T11:40:04;27.40;49.30
61201;DHT22;47065;52.898;6.992;2023-06-14T11:42:34;27.40;49.40
61201;DHT22;47065;52.898;6.992;2023-06-14T11:45:00;27.60;50.30
61201;DHT22;47065;52.898;6.992;2023-06-14T11:47:34;27.70;49.70
61201;DHT22;47065;52.898;6.992;2023-06-14T11:50:01;27.70;49.00
61201;DHT22;47065;52.898;6.992;2023-06-14T11:52:27;27.80;49.10
61201;DHT22;47065;52.898;6.992;2023-06-14T11:54:53;27.70;49.00
61201;DHT22;47065;52.898;6.992;2023-06-14T11:57:19;27.60;48.90
61201;DHT22;47065;52.898;6.992;2023-06-14T11:59:46;27.60;48.90
61201;DHT22;47065;52.898;6.992;2023-06-14T12:02:19;27.70;50.10
61201;DHT22;47065;52.898;6.992;2023-06-14T12:04:48;27.70;49.10
61201;DHT22;47065;52.898;6.992;2023-06-14T12:07:15;27.70;48.70
61201;DHT22;47065;52.898;6.992;2023-06-14T12:10:03;27.70;48.80
61201;DHT22;47065;52.898;6.992;2023-06-14T12:12:28;27.60;49.40
61201;DHT22;47065;52.898;6.992;2023-06-14T12:14:57;27.50;50.50
61201;DHT22;47065;52.898;6.992;2023-06-14T12:17:23;27.60;50.20
61201;DHT22;47065;52.898;6.992;2023-06-14T12:19:49;27.70;50.00
61201;DHT22;47065;52.898;6.992;2023-06-14T12:22:16;27.90;49.50
61201;DHT22;47065;52.898;6.992;2023-06-14T12:24:45;28.00;48.90
61201;DHT22;47065;52.898;6.992;2023-06-14T12:27:11;27.90;48.40
61201;DHT22;47065;52.898;6.992;2023-06-14T12:29:41;27.90;49.10
61201;DHT22;47065;52.898;6.992;2023-06-14T12:32:09;27.90;50.30
61201;DHT22;47065;52.898;6.992;2023-06-14T12:34:35;27.90;50.10
61201;DHT22;47065;52.898;6.992;2023-06-14T12:37:01;28.00;49.30
61201;DHT22;47065;52.898;6.992;2023-06-14T12:39:29;28.10;48.50
61201;DHT22;47065;52.898;6.992;2023-06-14T12:41:57;28.10;48.80
61201;DHT22;47065;52.898;6.992;2023-06-14T12:44:22;28.10;48.50
61201;DHT22;47065;52.898;6.992;2023-06-14T12:46:48;28.00;49.10
61201;DHT22;47065;52.898;6.992;2023-06-14T12:49:16;28.00;48.80
61201;DHT22;47065;52.898;6.992;2023-06-14T12:51:42;27.90;49.40
61201;DHT22;47065;52.898;6.992;2023-06-14T12:54:08;27.90;48.90
61201;DHT22;47065;52.898;6.992;2023-06-14T12:56:34;28.00;49.50
61201;DHT22;47065;52.898;6.992;2023-06-14T12:58:59;28.20;49.40
61201;DHT22;47065;52.898;6.992;2023-06-14T13:01:25;28.40;49.50
61201;DHT22;47065;52.898;6.992;2023-06-14T13:03:51;28.40;48.50
61201;DHT22;47065;52.898;6.992;2023-06-14T13:06:21;28.50;49.00
61201;DHT22;47065;52.898;6.992;2023-06-14T13:08:48;28.50;48.10
61201;DHT22;47065;52.898;6.992;2023-06-14T13:11:13;28.50;48.10
61201;DHT22;47065;52.898;6.992;2023-06-14T13:13:39;28.50;48.50
61201;DHT22;47065;52.898;6.992;2023-06-14T13:16:05;28.50;48.80
61201;DHT22;47065;52.898;6.992;2023-06-14T13:18:31;28.60;48.90
61201;DHT22;47065;52.898;6.992;2023-06-14T13:20:56;28.70;48.20
61201;DHT22;47065;52.898;6.992;2023-06-14T13:23:22;28.70;48.20
61201;DHT22;47065;52.898;6.992;2023-06-14T13:25:48;28.60;48.10
61201;DHT22;47065;52.898;6.992;2023-06-14T13:28:15;28.50;48.70
61201;DHT22;47065;52.898;6.992;2023-06-14T13:30:41;28.50;48.60
61201;DHT22;47065;52.898;6.992;2023-06-14T13:33:06;28.40;49.10
61201;DHT22;47065;52.898;6.992;2023-06-14T13:35:32;28.50;48.50
61201;DHT22;47065;52.898;6.992;2023-06-14T13:37:58;28.50;48.30
61201;DHT22;47065;52.898;6.992;2023-06-14T13:40:23;28.60;47.60
61201;DHT22;47065;52.898;6.992;2023-06-14T13:42:49;28.60;48.60
61201;DHT22;47065;52.898;6.992;2023-06-14T13:45:15;28.50;48.50
61201;DHT22;47065;52.898;6.992;2023-06-14T13:47:40;28.40;48.30
61201;DHT22;47065;52.898;6.992;2023-06-14T13:50:06;28.30;48.10
61201;DHT22;47065;52.898;6.992;2023-06-14T13:52:32;28.30;48.50
61201;DHT22;47065;52.898;6.992;2023-06-14T13:54:58;28.30;48.80
61201;DHT22;47065;52.898;6.992;2023-06-14T13:57:23;28.40;49.30
61201;DHT22;47065;52.898;6.992;2023-06-14T13:59:49;28.50;48.50
61201;DHT22;47065;52.898;6.992;2023-06-14T14:02:15;28.60;47.90
61201;DHT22;47065;52.898;6.992;2023-06-14T14:04:41;28.50;47.20
61201;DHT22;47065;52.898;6.992;2023-06-14T14:07:07;28.40;47.60
61201;DHT22;47065;52.898;6.992;2023-06-14T14:09:34;28.30;47.80
61201;DHT22;47065;52.898;6.992;2023-06-14T14:12:00;28.10;48.50
61201;DHT22;47065;52.898;6.992;2023-06-14T14:14:27;28.10;48.60
61201;DHT22;47065;52.898;6.992;2023-06-14T14:16:53;28.00;48.20
61201;DHT22;47065;52.898;6.992;2023-06-14T14:19:23;28.10;48.60
61201;DHT22;47065;52.898;6.992;2023-06-14T14:21:48;28.10;47.80
61201;DHT22;47065;52.898;6.992;2023-06-14T14:24:14;28.00;48.30
61201;DHT22;47065;52.898;6.992;2023-06-14T14:26:40;28.10;48.80
61201;DHT22;47065;52.898;6.992;2023-06-14T14:29:06;28.10;49.50
61201;DHT22;47065;52.898;6.992;2023-06-14T14:31:31;28.10;49.20
61201;DHT22;47065;52.898;6.992;2023-06-14T14:33:57;28.10;49.00
61201;DHT22;47065;52.898;6.992;2023-06-14T14:36:23;28.00;48.60
61201;DHT22;47065;52.898;6.992;2023-06-14T14:38:49;28.10;48.80
61201;DHT22;47065;52.898;6.992;2023-06-14T14:41:17;28.20;48.50
61201;DHT22;47065;52.898;6.992;2023-06-14T14:43:42;28.10;48.30
61201;DHT22;47065;52.898;6.992;2023-06-14T14:46:08;27.90;48.10
61201;DHT22;47065;52.898;6.992;2023-06-14T14:48:34;27.70;48.30
61201;DHT22;47065;52.898;6.992;2023-06-14T14:50:59;27.50;48.40
61201;DHT22;47065;52.898;6.992;2023-06-14T14:53:25;27.40;48.50
61201;DHT22;47065;52.898;6.992;2023-06-14T14:55:50;27.50;48.60
61201;DHT22;47065;52.898;6.992;2023-06-14T14:58:16;27.60;49.80
61201;DHT22;47065;52.898;6.992;2023-06-14T15:00:45;27.60;49.60
61201;DHT22;47065;52.898;6.992;2023-06-14T15:03:11;27.70;49.70
61201;DHT22;47065;52.898;6.992;2023-06-14T15:05:37;27.70;49.00
61201;DHT22;47065;52.898;6.992;2023-06-14T15:08:03;27.70;48.90
61201;DHT22;47065;52.898;6.992;2023-06-14T15:10:30;27.70;49.20
61201;DHT22;47065;52.898;6.992;2023-06-14T15:12:56;27.70;48.10
61201;DHT22;47065;52.898;6.992;2023-06-14T15:15:22;27.70;49.00
61201;DHT22;47065;52.898;6.992;2023-06-14T15:17:48;27.60;48.40
61201;DHT22;47065;52.898;6.992;2023-06-14T15:20:13;27.60;48.70
61201;DHT22;47065;52.898;6.992;2023-06-14T15:22:40;27.60;48.60
61201;DHT22;47065;52.898;6.992;2023-06-14T15:25:06;27.70;49.00
61201;DHT22;47065;52.898;6.992;2023-06-14T15:27:32;27.90;49.10
61201;DHT22;47065;52.898;6.992;2023-06-14T15:29:57;28.10;48.90
61201;DHT22;47065;52.898;6.992;2023-06-14T15:32:23;28.20;48.60
61201;DHT22;47065;52.898;6.992;2023-06-14T15:34:49;28.10;48.90
61201;DHT22;47065;52.898;6.992;2023-06-14T15:37:14;28.10;48.70
61201;DHT22;47065;52.898;6.992;2023-06-14T15:39:40;28.00;48.80
61201;DHT22;47065;52.898;6.992;2023-06-14T15:42:06;27.90;49.00
61201;DHT22;47065;52.898;6.992;2023-06-14T15:44:33;27.80;48.80
61201;DHT22;47065;52.898;6.992;2023-06-14T15:46:58;27.70;48.60
61201;DHT22;47065;52.898;6.992;2023-06-14T15:49:24;27.60;48.70